createdAt,value
2018-10-21T00:00:59.174Z,35.50
2018-10-21T00:03:26.951Z,31.17
2018-10-21T00:05:54.775Z,31.43
2018-10-21T00:08:22.491Z,30.20
2018-10-21T00:10:50.243Z,33.77
2018-10-21T00:13:17.981Z,29.63
2018-10-21T00:15:45.866Z,33.23
2018-10-21T00:18:13.543Z,32.97
2018-10-21T00:20:41.630Z,35.50
2018-10-21T00:23:09.367Z,30.50
2018-10-21T00:25:37.062Z,25.13
2018-10-21T00:28:05.176Z,30.60
2018-10-21T00:30:32.981Z,34.13
2018-10-21T00:33:01.728Z,37.37
2018-10-21T00:35:29.469Z,26.80
2018-10-21T00:37:57.184Z,38.60
2018-10-21T00:40:24.860Z,32.53
2018-10-21T00:42:52.592Z,28.70
2018-10-21T00:45:20.282Z,33.97
2018-10-21T00:47:48.015Z,31.20
2018-10-21T00:50:15.692Z,34.30
2018-10-21T00:52:43.402Z,31.60
2018-10-21T00:55:11.314Z,33.57
2018-10-21T00:57:39.277Z,31.17
2018-10-21T01:00:09.221Z,34.13
2018-10-21T01:02:37.447Z,28.13
2018-10-21T01:05:05.925Z,26.47
2018-10-21T01:07:33.817Z,34.97
2018-10-21T01:10:01.602Z,35.37
2018-10-21T01:12:29.366Z,29.90
2018-10-21T01:14:57.104Z,41.17
2018-10-21T01:17:24.796Z,29.93
2018-10-21T01:19:52.498Z,35.07
2018-10-21T01:22:20.286Z,27.10
2018-10-21T01:24:47.994Z,29.10
2018-10-21T01:27:15.774Z,29.47
2018-10-21T01:29:44.939Z,34.10
2018-10-21T01:32:13.248Z,30.97
2018-10-21T01:34:41.035Z,31.93
2018-10-21T01:37:08.884Z,36.63
2018-10-21T01:40:43.855Z,34.60
2018-10-21T01:43:13.240Z,27.63
2018-10-21T01:45:41.688Z,30.13
2018-10-21T01:48:10.784Z,29.00
2018-10-21T01:50:38.468Z,26.50
2018-10-21T01:53:07.302Z,29.43
2018-10-21T01:55:35.104Z,31.77
2018-10-21T01:58:02.914Z,34.30
2018-10-21T02:00:31.386Z,32.43
2018-10-21T02:02:59.660Z,31.50
2018-10-21T02:05:27.616Z,30.10
2018-10-21T02:07:55.727Z,30.07
2018-10-21T02:10:23.492Z,28.77
2018-10-21T02:12:51.363Z,26.97
2018-10-21T02:15:19.055Z,27.13
2018-10-21T02:17:46.787Z,26.30
2018-10-21T02:20:15.361Z,32.13
2018-10-21T02:22:43.897Z,28.37
2018-10-21T02:25:11.684Z,27.90
2018-10-21T02:27:40.174Z,24.40
2018-10-21T02:30:10.896Z,39.40
2018-10-21T02:32:38.653Z,26.07
2018-10-21T02:35:07.244Z,26.50
2018-10-21T02:37:35.431Z,32.43
2018-10-21T02:40:03.340Z,24.17
2018-10-21T02:42:31.134Z,28.53
2018-10-21T02:44:59.103Z,23.60
2018-10-21T02:47:26.763Z,33.47
2018-10-21T02:49:54.479Z,28.70
2018-10-21T02:52:22.171Z,34.43
2018-10-21T02:54:49.924Z,30.20
2018-10-21T02:57:17.731Z,29.33
2018-10-21T02:59:45.404Z,26.70
2018-10-21T03:02:13.138Z,26.70
2018-10-21T03:04:40.892Z,35.60
2018-10-21T03:07:08.626Z,29.13
2018-10-21T03:09:36.301Z,22.80
2018-10-21T03:12:04.176Z,28.13
2018-10-21T03:14:31.954Z,29.10
2018-10-21T03:16:59.643Z,24.73
2018-10-21T03:19:27.354Z,27.97
2018-10-21T03:21:55.041Z,34.43
2018-10-21T03:24:22.876Z,25.33
2018-10-21T03:26:50.604Z,28.53
2018-10-21T03:29:18.366Z,24.67
2018-10-21T03:31:46.561Z,25.33
2018-10-21T03:34:14.293Z,32.80
2018-10-21T03:36:42.101Z,22.90
2018-10-21T03:39:10.558Z,20.70
2018-10-21T03:41:38.360Z,21.80
2018-10-21T03:44:06.114Z,21.87
2018-10-21T03:46:33.932Z,20.60
2018-10-21T03:49:01.652Z,23.67
2018-10-21T03:51:29.361Z,23.07
2018-10-21T03:53:57.054Z,25.30
2018-10-21T03:56:24.804Z,25.60
2018-10-21T03:58:52.526Z,22.57
2018-10-21T04:01:20.228Z,28.30
2018-10-21T04:03:47.950Z,29.53
2018-10-21T04:06:15.641Z,21.57
2018-10-21T04:08:43.322Z,24.47
2018-10-21T04:11:11.439Z,27.87
2018-10-21T04:13:39.111Z,22.30
2018-10-21T04:16:06.824Z,27.17
2018-10-21T04:18:34.545Z,23.33
2018-10-21T04:21:02.339Z,20.40
2018-10-21T04:23:30.092Z,23.10
2018-10-21T04:25:57.801Z,23.73
2018-10-21T04:28:25.514Z,18.17
2018-10-21T04:30:53.193Z,21.53
2018-10-21T04:33:51.713Z,21.23
2018-10-21T04:36:23.709Z,18.13
2018-10-21T04:40:15.327Z,17.50
2018-10-21T04:42:43.439Z,19.03
2018-10-21T04:45:11.975Z,21.37
2018-10-21T04:47:39.681Z,22.00
2018-10-21T04:50:08.306Z,21.50
2018-10-21T04:52:36.051Z,19.97
2018-10-21T04:55:11.634Z,20.20
2018-10-21T04:57:40.539Z,22.70
2018-10-21T05:00:09.893Z,20.33
2018-10-21T05:02:37.605Z,23.60
2018-10-21T05:05:06.579Z,22.70
2018-10-21T05:07:34.324Z,20.77
2018-10-21T05:10:02.104Z,18.30
2018-10-21T05:12:29.838Z,23.00
2018-10-21T05:14:57.607Z,20.53
2018-10-21T05:17:25.295Z,18.97
2018-10-21T05:19:53.007Z,22.20
2018-10-21T05:22:20.731Z,24.43
2018-10-21T05:24:48.456Z,18.63
2018-10-21T05:27:16.202Z,23.93
2018-10-21T05:29:43.897Z,22.47
2018-10-21T05:32:11.638Z,24.27
2018-10-21T05:34:39.344Z,27.33
2018-10-21T05:37:07.115Z,27.83
2018-10-21T05:39:34.889Z,26.27
2018-10-21T05:42:02.645Z,26.73
2018-10-21T05:44:30.351Z,25.27
2018-10-21T05:46:58.175Z,27.73
2018-10-21T05:49:25.847Z,22.90
2018-10-21T05:51:53.522Z,23.23
2018-10-21T05:54:21.341Z,20.33
2018-10-21T05:56:50.246Z,25.47
2018-10-21T05:59:18.343Z,24.37
2018-10-21T06:01:46.660Z,27.57
2018-10-21T06:04:15.437Z,22.30
2018-10-21T06:06:43.068Z,27.13
2018-10-21T06:09:12.015Z,24.33
2018-10-21T06:11:39.788Z,24.30
2018-10-21T06:14:07.609Z,19.00
2018-10-21T06:16:45.897Z,22.93
2018-10-21T06:19:17.998Z,21.80
2018-10-21T06:21:45.721Z,25.87
2018-10-21T06:24:13.413Z,24.10
2018-10-21T06:26:41.157Z,22.20
2018-10-21T06:29:08.956Z,28.23
2018-10-21T06:31:36.841Z,24.53
2018-10-21T06:34:04.882Z,23.87
2018-10-21T06:36:32.698Z,22.40
2018-10-21T06:39:00.411Z,23.23
2018-10-21T06:41:28.147Z,26.63
2018-10-21T06:43:55.882Z,23.83
2018-10-21T06:46:23.632Z,29.67
2018-10-21T06:48:52.009Z,24.10
2018-10-21T06:51:19.815Z,21.30
2018-10-21T06:53:47.592Z,23.87
2018-10-21T06:56:15.347Z,28.67
2018-10-21T06:58:43.077Z,29.53
2018-10-21T07:01:10.962Z,24.50
2018-10-21T07:03:38.710Z,29.23
2018-10-21T07:06:10.117Z,35.77
2018-10-21T07:08:37.944Z,27.23
2018-10-21T07:11:05.963Z,31.90
2018-10-21T07:13:34.149Z,26.00
2018-10-21T07:16:01.980Z,24.90
2018-10-21T07:18:29.710Z,27.03
2018-10-21T07:20:57.454Z,23.40
2018-10-21T07:23:25.197Z,22.90
2018-10-21T07:25:52.939Z,22.63
2018-10-21T07:28:20.900Z,21.33
2018-10-21T07:30:48.572Z,65.80
2018-10-21T07:33:16.314Z,33.07
2018-10-21T07:35:44.049Z,24.03
2018-10-21T07:38:11.780Z,23.83
2018-10-21T07:40:39.545Z,30.20
2018-10-21T07:43:07.298Z,25.97
2018-10-21T07:45:35.084Z,26.93
2018-10-21T07:48:03.064Z,23.90
2018-10-21T07:50:30.956Z,23.50
2018-10-21T07:52:58.665Z,23.60
2018-10-21T07:55:26.467Z,25.33
2018-10-21T07:57:54.165Z,30.77
2018-10-21T08:00:21.987Z,34.83
2018-10-21T08:02:49.698Z,27.10
2018-10-21T08:06:32.955Z,21.93
2018-10-21T08:09:00.817Z,23.67
2018-10-21T08:11:28.875Z,24.50
2018-10-21T08:13:56.695Z,25.23
2018-10-21T08:16:24.453Z,23.97
2018-10-21T08:18:53.564Z,25.80
2018-10-21T08:21:21.546Z,30.03
2018-10-21T08:23:49.454Z,22.90
2018-10-21T08:26:17.331Z,20.10
2018-10-21T08:28:45.479Z,26.53
2018-10-21T08:31:14.163Z,24.50
2018-10-21T08:33:42.041Z,22.13
2018-10-21T08:36:10.043Z,31.57
2018-10-21T08:38:37.827Z,19.97
2018-10-21T08:41:05.649Z,19.67
2018-10-21T08:43:33.538Z,15.80
2018-10-21T08:46:01.397Z,13.87
2018-10-21T08:48:29.197Z,13.07
2018-10-21T08:50:56.975Z,16.03
2018-10-21T08:53:24.798Z,29.07
2018-10-21T08:55:52.643Z,23.33
2018-10-21T08:58:20.364Z,17.67
2018-10-21T09:00:48.266Z,15.63
2018-10-21T09:03:16.093Z,14.73
2018-10-21T09:05:43.902Z,12.60
2018-10-21T09:08:12.109Z,11.23
2018-10-21T09:10:40.133Z,8.40
2018-10-21T09:13:08.006Z,7.73
2018-10-21T09:15:35.896Z,10.50
2018-10-21T09:18:03.955Z,9.80
2018-10-21T09:20:31.903Z,8.17
2018-10-21T09:22:59.742Z,7.40
2018-10-21T09:25:27.664Z,7.10
2018-10-21T09:27:55.610Z,7.37
2018-10-21T09:30:23.537Z,5.10
2018-10-21T09:32:51.324Z,5.80
2018-10-21T09:35:19.357Z,8.17
2018-10-21T09:37:47.341Z,5.93
2018-10-21T09:40:16.781Z,4.70
2018-10-21T09:42:44.954Z,7.57
2018-10-21T09:45:14.576Z,4.73
2018-10-21T09:47:42.943Z,3.83
2018-10-21T09:50:11.518Z,5.63
2018-10-21T09:52:39.779Z,5.27
2018-10-21T09:55:14.499Z,11.13
2018-10-21T09:57:42.550Z,5.17
2018-10-21T10:00:10.416Z,6.60
2018-10-21T10:02:44.030Z,5.93
2018-10-21T10:05:12.091Z,5.80
2018-10-21T10:07:39.863Z,3.97
2018-10-21T10:10:09.285Z,3.53
2018-10-21T10:12:37.138Z,4.20
2018-10-21T10:15:06.711Z,3.60
2018-10-21T10:17:34.613Z,7.80
2018-10-21T10:20:02.473Z,3.53
2018-10-21T10:22:30.286Z,3.20
2018-10-21T10:24:58.093Z,8.90
2018-10-21T10:27:25.855Z,4.80
2018-10-21T10:29:53.662Z,3.33
2018-10-21T10:32:21.408Z,4.30
2018-10-21T10:34:49.231Z,9.30
2018-10-21T10:37:17.104Z,4.00
2018-10-21T10:39:44.823Z,5.57
2018-10-21T10:42:12.637Z,7.53
2018-10-21T10:44:40.443Z,4.10
2018-10-21T10:47:08.242Z,2.97
2018-10-21T10:49:36.102Z,3.27
2018-10-21T10:52:04.200Z,3.60
2018-10-21T10:54:32.053Z,5.23
2018-10-21T10:56:59.847Z,14.73
2018-10-21T10:59:28.310Z,3.13
2018-10-21T11:01:56.838Z,4.50
2018-10-21T11:04:24.806Z,4.17
2018-10-21T11:06:52.594Z,4.70
2018-10-21T11:09:20.317Z,4.77
2018-10-21T11:11:48.024Z,3.87
2018-10-21T11:14:15.799Z,4.23
2018-10-21T11:16:43.553Z,7.77
2018-10-21T11:19:11.626Z,6.03
2018-10-21T11:21:39.418Z,4.50
2018-10-21T11:24:07.162Z,21.13
2018-10-21T11:26:35.004Z,27.37
2018-10-21T11:29:02.887Z,47.90
2018-10-21T11:31:30.667Z,20.23
2018-10-21T11:33:58.459Z,2.43
2018-10-21T11:36:26.278Z,2.43
2018-10-21T11:38:54.105Z,4.73
2018-10-21T11:41:22.105Z,3.57
2018-10-21T11:43:49.931Z,4.00
2018-10-21T11:46:18.524Z,2.83
2018-10-21T11:48:46.349Z,2.37
2018-10-21T11:51:14.325Z,1.97
2018-10-21T11:53:42.365Z,4.60
2018-10-21T11:56:10.182Z,1.80
2018-10-21T11:58:37.938Z,2.50
2018-10-21T12:01:05.946Z,2.13
2018-10-21T12:03:33.954Z,4.60
2018-10-21T12:06:01.938Z,2.20
2018-10-21T12:08:29.816Z,2.90
2018-10-21T12:10:57.712Z,1.50
2018-10-21T12:13:25.507Z,1.53
2018-10-21T12:15:53.670Z,2.00
2018-10-21T12:18:21.426Z,2.90
2018-10-21T12:20:49.266Z,2.47
2018-10-21T12:23:17.240Z,3.27
2018-10-21T12:25:45.221Z,2.67
2018-10-21T12:28:13.156Z,3.83
2018-10-21T12:30:41.007Z,3.27
2018-10-21T12:33:08.809Z,1.20
2018-10-21T12:35:36.694Z,1.63
2018-10-21T12:38:04.609Z,1.80
2018-10-21T12:40:32.566Z,1.53
2018-10-21T12:43:00.448Z,2.93
2018-10-21T12:45:28.445Z,4.97
2018-10-21T12:47:56.216Z,2.50
2018-10-21T12:50:24.077Z,2.60
2018-10-21T12:52:51.841Z,1.60
2018-10-21T12:55:19.660Z,13.80
2018-10-21T12:57:47.365Z,2.10
2018-10-21T13:00:15.225Z,3.43
2018-10-21T13:02:43.039Z,2.80
2018-10-21T13:05:11.018Z,1.83
2018-10-21T13:07:38.948Z,1.67
2018-10-21T13:10:06.980Z,2.00
2018-10-21T13:12:34.783Z,3.40
2018-10-21T13:15:02.587Z,4.67
2018-10-21T13:17:30.379Z,4.33
2018-10-21T13:19:58.222Z,5.33
2018-10-21T13:22:26.058Z,5.70
2018-10-21T13:24:53.824Z,1.13
2018-10-21T13:27:21.721Z,3.30
2018-10-21T13:29:49.541Z,1.67
2018-10-21T13:32:17.294Z,2.73
2018-10-21T13:34:45.110Z,5.23
2018-10-21T13:37:12.881Z,3.47
2018-10-21T13:39:40.677Z,5.43
2018-10-21T13:42:08.465Z,2.30
2018-10-21T13:44:36.469Z,1.87
2018-10-21T13:47:04.426Z,2.40
2018-10-21T13:49:32.289Z,3.20
2018-10-21T13:52:00.361Z,1.50
2018-10-21T13:54:28.129Z,3.73
2018-10-21T13:56:56.677Z,4.63
2018-10-21T13:59:24.685Z,2.93
2018-10-21T14:01:52.569Z,2.80
2018-10-21T14:04:20.386Z,2.77
2018-10-21T14:06:48.280Z,2.93
2018-10-21T14:09:16.209Z,2.13
2018-10-21T14:11:44.041Z,5.70
2018-10-21T14:14:13.016Z,2.33
2018-10-21T14:16:41.240Z,4.83
2018-10-21T14:19:09.477Z,4.67
2018-10-21T14:21:37.317Z,3.30
2018-10-21T14:24:05.427Z,5.07
2018-10-21T14:26:33.462Z,5.80
2018-10-21T14:29:01.374Z,4.13
2018-10-21T14:31:29.273Z,3.47
2018-10-21T14:33:57.079Z,3.07
2018-10-21T14:36:25.568Z,4.13
2018-10-21T14:38:53.391Z,1.80
2018-10-21T14:41:21.270Z,7.00
2018-10-21T14:43:49.851Z,5.97
2018-10-21T14:46:17.866Z,5.23
2018-10-21T14:48:45.700Z,4.23
2018-10-21T14:51:13.842Z,3.83
2018-10-21T14:53:41.780Z,4.73
2018-10-21T14:56:09.750Z,6.70
2018-10-21T14:58:37.957Z,2.80
2018-10-21T15:01:06.563Z,4.87
2018-10-21T15:03:34.877Z,2.50
2018-10-21T15:06:02.669Z,6.60
2018-10-21T15:08:30.438Z,4.37
2018-10-21T15:10:58.295Z,3.83
2018-10-21T15:13:26.085Z,5.13
2018-10-21T15:15:53.875Z,3.37
2018-10-21T15:18:21.609Z,6.43
2018-10-21T15:20:49.362Z,4.90
2018-10-21T15:23:17.187Z,4.70
2018-10-21T15:25:45.003Z,5.87
2018-10-21T15:28:12.785Z,3.77
2018-10-21T15:30:40.661Z,4.13
2018-10-21T15:33:08.420Z,4.60
2018-10-21T15:35:36.225Z,2.60
2018-10-21T15:38:04.102Z,21.43
2018-10-21T15:40:31.832Z,16.90
2018-10-21T15:42:59.699Z,5.33
2018-10-21T15:45:28.876Z,9.00
2018-10-21T15:47:56.738Z,9.67
2018-10-21T15:50:25.344Z,4.10
2018-10-21T15:52:53.370Z,4.90
2018-10-21T15:55:24.498Z,2.80
2018-10-21T15:57:52.392Z,3.13
2018-10-21T16:00:20.521Z,2.43
2018-10-21T16:02:48.411Z,1.33
2018-10-21T16:05:16.225Z,15.07
2018-10-21T16:07:44.043Z,7.03
2018-10-21T16:10:12.248Z,5.13
2018-10-21T16:12:40.694Z,4.70
2018-10-21T16:15:10.880Z,6.97
2018-10-21T16:17:38.850Z,3.53
2018-10-21T16:20:07.348Z,5.70
2018-10-21T16:22:37.032Z,5.33
2018-10-21T16:25:06.830Z,3.27
2018-10-21T16:27:34.925Z,2.93
2018-10-21T16:30:02.967Z,2.73
2018-10-21T16:32:31.328Z,4.50
2018-10-21T16:34:59.113Z,5.23
2018-10-21T16:37:27.213Z,4.20
2018-10-21T16:39:55.085Z,6.17
2018-10-21T16:42:22.897Z,3.80
2018-10-21T16:44:51.843Z,3.23
2018-10-21T16:47:19.955Z,3.77
2018-10-21T16:49:47.898Z,4.00
2018-10-21T16:52:15.770Z,12.90
2018-10-21T16:54:43.738Z,11.97
2018-10-21T16:57:11.534Z,3.20
2018-10-21T16:59:39.292Z,2.07
2018-10-21T17:02:07.069Z,2.83
2018-10-21T17:04:35.052Z,6.10
2018-10-21T17:07:02.978Z,6.10
2018-10-21T17:09:31.576Z,2.73
2018-10-21T17:11:59.245Z,6.33
2018-10-21T17:14:27.016Z,4.30
2018-10-21T17:16:55.864Z,19.20
2018-10-21T17:19:24.378Z,12.33
2018-10-21T17:21:53.335Z,8.30
2018-10-21T17:24:21.179Z,11.43
2018-10-21T17:26:48.960Z,12.57
2018-10-21T17:29:16.846Z,7.20
2018-10-21T17:31:44.632Z,13.30
2018-10-21T17:34:12.620Z,19.80
2018-10-21T17:36:40.426Z,15.10
2018-10-21T17:39:11.874Z,9.30
2018-10-21T17:41:39.903Z,6.90
2018-10-21T17:44:07.679Z,8.73
2018-10-21T17:46:36.290Z,8.63
2018-10-21T17:49:04.223Z,17.00
2018-10-21T17:51:32.143Z,12.70
2018-10-21T17:54:00.118Z,14.70
2018-10-21T17:56:28.097Z,9.83
2018-10-21T17:58:55.898Z,13.73
2018-10-21T18:01:24.119Z,8.73
2018-10-21T18:03:51.952Z,10.03
2018-10-21T18:06:19.839Z,7.70
2018-10-21T18:08:47.636Z,11.07
2018-10-21T18:11:15.589Z,13.30
2018-10-21T18:13:43.320Z,6.33
2018-10-21T18:16:11.243Z,9.03
2018-10-21T18:18:39.034Z,15.40
2018-10-21T18:21:06.869Z,12.07
2018-10-21T18:23:34.829Z,13.50
2018-10-21T18:26:02.706Z,17.57
2018-10-21T18:28:30.652Z,18.40
2018-10-21T18:30:58.479Z,10.50
2018-10-21T18:33:27.024Z,12.83
2018-10-21T18:35:54.841Z,9.23
2018-10-21T18:38:22.724Z,17.70
2018-10-21T18:40:50.708Z,16.03
2018-10-21T18:43:18.418Z,17.13
2018-10-21T18:45:46.141Z,19.50
2018-10-21T18:48:14.902Z,17.63
2018-10-21T18:50:42.714Z,17.73
2018-10-21T18:53:11.469Z,19.03
2018-10-21T18:55:39.295Z,20.23
2018-10-21T18:58:07.124Z,17.43
2018-10-21T19:00:34.915Z,14.17
2018-10-21T19:03:02.838Z,11.80
2018-10-21T19:05:30.643Z,10.00
2018-10-21T19:07:58.438Z,12.60
2018-10-21T19:10:26.282Z,15.37
2018-10-21T19:13:00.050Z,12.53
2018-10-21T19:15:22.006Z,13.40
2018-10-21T19:17:49.845Z,12.10
2018-10-21T19:20:17.762Z,13.80
2018-10-21T19:22:45.572Z,11.27
2018-10-21T19:25:14.655Z,9.20
2018-10-21T19:27:43.101Z,13.93
2018-10-21T19:30:11.984Z,13.70
2018-10-21T19:32:40.262Z,13.80
2018-10-21T19:35:09.010Z,13.20
2018-10-21T19:37:36.816Z,10.90
2018-10-21T19:40:05.405Z,14.63
2018-10-21T19:42:33.161Z,12.60
2018-10-21T19:45:01.891Z,12.07
2018-10-21T19:47:29.697Z,9.80
2018-10-21T19:49:57.504Z,13.33
2018-10-21T19:52:25.942Z,11.43
2018-10-21T19:54:53.675Z,10.03
2018-10-21T19:57:21.456Z,11.50
2018-10-21T19:59:49.267Z,13.47
2018-10-21T20:02:17.623Z,8.37
2018-10-21T20:04:45.568Z,12.77
2018-10-21T20:07:13.373Z,81.13
2018-10-21T20:09:41.272Z,108.77
2018-10-21T20:12:09.210Z,16.90
2018-10-21T20:14:37.201Z,13.97
2018-10-21T20:17:06.340Z,13.60
2018-10-21T20:19:34.264Z,8.73
2018-10-21T20:22:02.099Z,12.37
2018-10-21T20:24:30.849Z,12.43
2018-10-21T20:26:58.622Z,10.20
2018-10-21T20:29:26.408Z,10.37
2018-10-21T20:31:54.363Z,13.10
2018-10-21T20:34:22.221Z,10.47
2018-10-21T20:36:50.012Z,10.17
2018-10-21T20:39:17.856Z,15.93
2018-10-21T20:41:45.848Z,14.40
2018-10-21T20:44:13.602Z,11.57
2018-10-21T20:46:41.668Z,10.37
2018-10-21T20:49:09.457Z,11.30
2018-10-21T20:51:37.452Z,9.90
2018-10-21T20:54:05.177Z,9.33
2018-10-21T20:56:32.994Z,9.90
2018-10-21T20:59:00.826Z,10.20
2018-10-21T21:01:28.570Z,11.87
2018-10-21T21:03:56.329Z,11.40
2018-10-21T21:06:24.100Z,10.07
2018-10-21T21:08:51.831Z,12.97
2018-10-21T21:11:19.652Z,7.67
2018-10-21T21:13:47.356Z,10.73
2018-10-21T21:16:15.115Z,13.30
2018-10-21T21:18:42.855Z,13.00
2018-10-21T21:21:10.933Z,9.20
2018-10-21T21:23:38.711Z,9.97
2018-10-21T21:26:06.442Z,11.03
2018-10-21T21:28:34.218Z,9.23
2018-10-21T21:31:01.909Z,10.27
2018-10-21T21:33:29.663Z,10.47
2018-10-21T21:35:57.395Z,9.70
2018-10-21T21:38:25.153Z,13.60
2018-10-21T21:40:53.566Z,10.40
2018-10-21T21:43:21.293Z,14.00
2018-10-21T21:45:49.025Z,26.73
2018-10-21T21:48:16.825Z,22.90
2018-10-21T21:50:44.548Z,13.97
2018-10-21T21:53:12.266Z,15.03
2018-10-21T21:55:40.898Z,11.63
2018-10-21T21:58:09.634Z,17.23
2018-10-21T22:00:37.288Z,8.50
2018-10-21T22:03:05.065Z,12.40
2018-10-21T22:05:32.790Z,9.10
2018-10-21T22:08:00.533Z,8.13
2018-10-21T22:10:28.289Z,9.10
2018-10-21T22:12:56.008Z,8.40
2018-10-21T22:15:23.766Z,10.90
2018-10-21T22:17:51.544Z,6.90
2018-10-21T22:20:19.376Z,5.90
2018-10-21T22:22:47.121Z,17.30
2018-10-21T22:25:15.422Z,9.83
2018-10-21T22:27:43.722Z,6.27
2018-10-21T22:30:12.122Z,7.03
2018-10-21T22:32:39.831Z,7.60
2018-10-21T22:35:08.341Z,12.80
2018-10-21T22:37:36.220Z,11.13
2018-10-21T22:40:04.384Z,25.10
2018-10-21T22:42:32.116Z,11.50
2018-10-21T22:44:59.845Z,10.17
2018-10-21T22:47:27.552Z,17.37
2018-10-21T22:49:55.301Z,12.53
2018-10-21T22:52:23.081Z,13.27
2018-10-21T22:54:50.816Z,12.40
2018-10-21T22:57:19.402Z,18.43
2018-10-21T22:59:49.265Z,11.47
2018-10-21T23:02:17.024Z,11.37
2018-10-21T23:04:45.256Z,8.03
2018-10-21T23:07:13.136Z,14.90
2018-10-21T23:09:40.848Z,9.37
2018-10-21T23:12:08.808Z,10.50
2018-10-21T23:14:36.722Z,9.40
2018-10-21T23:17:04.620Z,10.57
2018-10-21T23:19:38.983Z,10.70
2018-10-21T23:22:08.454Z,11.30
2018-10-21T23:24:37.003Z,9.90
2018-10-21T23:27:04.988Z,8.87
2018-10-21T23:29:32.755Z,6.97
2018-10-21T23:32:01.389Z,17.77
2018-10-21T23:34:30.036Z,12.93
2018-10-21T23:36:57.700Z,14.43
2018-10-21T23:39:26.148Z,8.33
2018-10-21T23:41:53.995Z,10.33
2018-10-21T23:44:21.656Z,9.97
2018-10-21T23:46:50.060Z,9.13
2018-10-21T23:49:17.764Z,6.67
2018-10-21T23:51:45.542Z,11.90
2018-10-21T23:54:13.364Z,10.93
2018-10-21T23:56:41.012Z,9.13
2018-10-21T23:59:09.804Z,13.70
